Time;durP1;ratioP1;P1;durP2;ratioP2;P2;SDS_P1;SDS_P2;PMS_P1;PMS_P2;Temp;Humidity;BMP_temperature;BMP_pressure;BME280_temperature;BME280_humidity;BME280_pressure;Samples;Min_cycle;Max_cycle;Signal;HPM_P1;HPM_P2
2023/12/27 00:01:22;;;;;;;22.25;20.85;;;;;;;;;;5070767;28;20268;-76
2023/12/27 00:03:49;;;;;;;23.05;21.42;;;;;;;;;;5071353;28;20211;-76
2023/12/27 00:06:16;;;;;;;22.60;21.17;;;;;;;;;;5070950;28;20233;-76
2023/12/27 00:08:43;;;;;;;22.75;21.40;;;;;;;;;;5071092;28;20215;-75
2023/12/27 00:11:12;;;;;;;21.65;20.17;;;;;;;;;;5070563;28;20316;-75
2023/12/27 00:13:39;;;;;;;22.52;21.02;;;;;;;;;;5071213;28;20276;-76
2023/12/27 00:16:06;;;;;;;24.63;22.38;;;;;;;;;;5071164;28;20210;-76
2023/12/27 00:18:33;;;;;;;22.65;21.50;;;;;;;;;;5071392;28;20204;-75
2023/12/27 00:20:59;;;;;;;23.42;21.73;;;;;;;;;;5070414;28;20212;-74
2023/12/27 00:23:27;;;;;;;24.17;22.35;;;;;;;;;;5071187;28;20215;-76
2023/12/27 00:25:54;;;;;;;24.05;22.42;;;;;;;;;;5070696;28;20286;-75
2023/12/27 00:28:22;;;;;;;22.60;21.23;;;;;;;;;;5070849;28;20231;-76
2023/12/27 00:30:51;;;;;;;23.25;21.65;;;;;;;;;;5070349;28;20203;-75
2023/12/27 00:33:18;;;;;;;23.23;21.73;;;;;;;;;;5070214;28;20202;-75
2023/12/27 00:35:45;;;;;;;22.73;21.38;;;;;;;;;;5071069;28;20274;-76
2023/12/27 00:38:12;;;;;;;24.00;22.60;;;;;;;;;;5070765;28;20223;-76
2023/12/27 00:40:39;;;;;;;22.40;21.05;;;;;;;;;;5070038;28;20258;-74
2023/12/27 00:43:06;;;;;;;22.05;20.88;;;;;;;;;;5070069;28;20236;-75
2023/12/27 00:45:35;;;;;;;23.75;21.90;;;;;;;;;;5070390;28;20199;-75
2023/12/27 00:48:02;;;;;;;22.10;20.80;;;;;;;;;;5070110;28;20223;-76
2023/12/27 00:50:29;;;;;;;22.45;21.25;;;;;;;;;;5070096;28;20207;-74
2023/12/27 00:52:56;;;;;;;23.27;21.60;;;;;;;;;;5070648;28;20203;-75
2023/12/27 00:55:23;;;;;;;22.73;21.33;;;;;;;;;;5070686;28;20253;-77
2023/12/27 00:57:49;;;;;;;22.27;21.08;;;;;;;;;;5069552;28;20219;-75
2023/12/27 01:00:17;;;;;;;22.13;20.98;;;;;;;;;;5070540;28;20207;-76
2023/12/27 01:02:45;;;;;;;21.80;20.40;;;;;;;;;;5069753;28;20227;-75
2023/12/27 01:05:12;;;;;;;22.42;21.33;;;;;;;;;;5070183;28;20276;-75
2023/12/27 01:07:39;;;;;;;22.70;21.50;;;;;;;;;;5084352;28;20246;-75
2023/12/27 01:10:07;;;;;;;22.35;20.92;;;;;;;;;;5090330;28;20214;-74
2023/12/27 01:12:34;;;;;;;23.23;21.63;;;;;;;;;;5085779;28;20203;-75
2023/12/27 01:15:01;;;;;;;24.58;22.80;;;;;;;;;;5070430;28;20208;-75
2023/12/27 01:17:28;;;;;;;22.80;21.45;;;;;;;;;;5069911;28;20223;-76
2023/12/27 01:19:56;;;;;;;22.48;20.98;;;;;;;;;;5069892;28;20733;-75
2023/12/27 01:22:23;;;;;;;23.10;21.45;;;;;;;;;;5069028;28;20695;-75
2023/12/27 01:24:50;;;;;;;21.63;20.52;;;;;;;;;;5069707;28;20553;-75
2023/12/27 01:27:17;;;;;;;21.58;20.35;;;;;;;;;;5069995;28;20227;-75
2023/12/27 01:29:44;;;;;;;22.77;21.48;;;;;;;;;;5069959;28;20208;-75
2023/12/27 01:32:11;;;;;;;22.48;21.20;;;;;;;;;;5069233;28;20208;-75
2023/12/27 01:34:39;;;;;;;21.05;19.73;;;;;;;;;;5070235;28;20261;-75
2023/12/27 01:37:07;;;;;;;22.70;21.17;;;;;;;;;;5070084;28;20683;-76
2023/12/27 01:42:57;;;;;;;24.55;23.13;;;;;;;;;;5069227;28;20210;-75
2023/12/27 01:45:24;;;;;;;23.35;21.98;;;;;;;;;;5068530;28;20192;-75
2023/12/27 01:47:51;;;;;;;23.83;22.60;;;;;;;;;;5069761;28;20224;-75
2023/12/27 01:50:18;;;;;;;22.58;21.25;;;;;;;;;;5069934;28;20210;-76
2023/12/27 01:52:47;;;;;;;22.02;20.65;;;;;;;;;;5069564;28;20225;-75
2023/12/27 01:55:14;;;;;;;22.55;21.35;;;;;;;;;;5070203;28;20605;-75
2023/12/27 01:57:41;;;;;;;22.85;21.33;;;;;;;;;;5070061;28;20281;-75
2023/12/27 02:00:09;;;;;;;24.05;22.50;;;;;;;;;;5069568;28;20257;-76
2023/12/27 02:02:36;;;;;;;23.13;21.92;;;;;;;;;;5069084;28;20223;-75
2023/12/27 02:05:03;;;;;;;21.42;20.42;;;;;;;;;;5069678;28;20203;-75
2023/12/27 02:07:30;;;;;;;23.77;21.90;;;;;;;;;;5069487;28;20243;-75
2023/12/27 02:09:58;;;;;;;22.15;20.85;;;;;;;;;;5072591;28;20245;-76
2023/12/27 02:12:26;;;;;;;23.02;21.63;;;;;;;;;;5072874;28;20207;-76
2023/12/27 02:14:53;;;;;;;23.58;22.00;;;;;;;;;;5073138;28;20215;-76
2023/12/27 02:17:20;;;;;;;24.17;22.50;;;;;;;;;;5073183;28;20227;-76
2023/12/27 02:19:48;;;;;;;22.92;21.65;;;;;;;;;;5073484;28;20284;-76
2023/12/27 02:22:20;;;;;;;22.33;21.08;;;;;;;;;;5072561;28;20243;-79
2023/12/27 02:24:49;;;;;;;22.15;21.05;;;;;;;;;;5073396;28;20199;-76
2023/12/27 02:27:16;;;;;;;23.45;21.95;;;;;;;;;;5072944;28;20227;-75
2023/12/27 02:29:43;;;;;;;23.73;22.42;;;;;;;;;;5073156;28;20207;-76
2023/12/27 02:32:10;;;;;;;24.13;22.52;;;;;;;;;;5072495;28;20217;-75
2023/12/27 02:34:37;;;;;;;23.88;22.67;;;;;;;;;;5072943;28;20261;-74
2023/12/27 02:37:04;;;;;;;24.45;22.80;;;;;;;;;;5072863;28;20767;-75
2023/12/27 02:39:31;;;;;;;23.35;22.23;;;;;;;;;;5072932;28;20261;-75
2023/12/27 02:41:59;;;;;;;24.35;22.80;;;;;;;;;;5072246;28;20230;-77
2023/12/27 02:44:26;;;;;;;23.27;22.08;;;;;;;;;;5072849;28;20732;-76
2023/12/27 02:46:53;;;;;;;22.65;21.15;;;;;;;;;;5072949;28;20231;-77
2023/12/27 02:49:21;;;;;;;24.65;22.88;;;;;;;;;;5072543;28;20214;-77
2023/12/27 02:51:48;;;;;;;23.25;21.92;;;;;;;;;;5072460;28;20219;-76
2023/12/27 02:54:15;;;;;;;23.60;22.20;;;;;;;;;;5072571;28;20211;-76
2023/12/27 02:56:42;;;;;;;22.00;20.80;;;;;;;;;;5072667;28;20602;-75
2023/12/27 02:59:10;;;;;;;23.13;21.80;;;;;;;;;;5072879;28;20249;-75
2023/12/27 03:01:37;;;;;;;23.38;22.08;;;;;;;;;;5072124;28;20199;-76
2023/12/27 03:04:05;;;;;;;25.40;23.67;;;;;;;;;;5072385;28;20294;-76
2023/12/27 03:06:32;;;;;;;24.20;22.80;;;;;;;;;;5072704;28;20220;-76
2023/12/27 03:08:58;;;;;;;23.52;22.33;;;;;;;;;;5072263;28;20222;-76
2023/12/27 03:11:25;;;;;;;22.95;21.75;;;;;;;;;;5072131;28;20281;-76
2023/12/27 03:13:52;;;;;;;24.15;22.80;;;;;;;;;;5072488;28;20249;-76
2023/12/27 03:16:21;;;;;;;24.95;23.17;;;;;;;;;;5072375;28;20224;-76
2023/12/27 03:18:48;;;;;;;24.00;22.60;;;;;;;;;;5072495;28;20202;-76
2023/12/27 03:21:15;;;;;;;25.58;24.08;;;;;;;;;;5071263;28;20676;-76
2023/12/27 03:23:42;;;;;;;25.38;23.75;;;;;;;;;;5072201;28;20223;-77
2023/12/27 03:26:09;;;;;;;24.65;23.42;;;;;;;;;;5072350;28;20204;-76
2023/12/27 03:28:36;;;;;;;23.45;22.15;;;;;;;;;;5072254;28;20257;-76
2023/12/27 03:31:03;;;;;;;23.35;22.15;;;;;;;;;;5071421;28;20211;-76
2023/12/27 03:33:31;;;;;;;24.45;23.15;;;;;;;;;;5072075;28;20204;-77
2023/12/27 03:35:58;;;;;;;24.55;23.15;;;;;;;;;;5071779;28;20223;-76
2023/12/27 03:38:44;;;;;;;24.15;22.88;;;;;;;;;;5071378;28;20254;-76
2023/12/27 03:41:11;;;;;;;23.52;21.88;;;;;;;;;;5069304;28;20921;-79
2023/12/27 03:43:38;;;;;;;25.45;23.50;;;;;;;;;;5071657;28;20641;-78
2023/12/27 03:46:05;;;;;;;24.27;22.85;;;;;;;;;;5071301;28;20725;-76
2023/12/27 03:48:33;;;;;;;24.58;22.90;;;;;;;;;;5071469;28;20310;-76
2023/12/27 03:51:00;;;;;;;23.42;22.05;;;;;;;;;;5071158;28;20235;-76
2023/12/27 03:53:27;;;;;;;25.05;23.20;;;;;;;;;;5071725;28;20199;-77
2023/12/27 03:55:54;;;;;;;25.13;23.33;;;;;;;;;;5071531;28;20212;-76
2023/12/27 03:58:21;;;;;;;25.65;23.85;;;;;;;;;;5071229;28;20734;-77
2023/12/27 04:00:48;;;;;;;24.60;22.92;;;;;;;;;;5070629;28;20207;-76
2023/12/27 04:03:15;;;;;;;26.52;24.70;;;;;;;;;;5071099;28;20277;-76
2023/12/27 04:05:43;;;;;;;25.15;23.58;;;;;;;;;;5071097;28;20212;-75
2023/12/27 04:08:11;;;;;;;25.08;23.48;;;;;;;;;;5070869;28;21010;-77
2023/12/27 04:10:37;;;;;;;26.40;24.80;;;;;;;;;;5070787;28;20266;-76
2023/12/27 04:13:04;;;;;;;25.50;24.08;;;;;;;;;;5071251;28;20211;-76
2023/12/27 04:15:31;;;;;;;25.15;23.95;;;;;;;;;;5071457;28;20292;-77
2023/12/27 04:17:58;;;;;;;26.33;24.23;;;;;;;;;;5071300;28;20220;-77
2023/12/27 04:20:25;;;;;;;26.13;24.63;;;;;;;;;;5070896;28;20252;-75
2023/12/27 04:22:54;;;;;;;26.40;24.25;;;;;;;;;;5070487;28;20223;-76
2023/12/27 04:25:21;;;;;;;26.25;24.15;;;;;;;;;;5071183;28;20361;-76
2023/12/27 04:27:48;;;;;;;26.52;24.40;;;;;;;;;;5071116;28;20271;-75
2023/12/27 04:30:15;;;;;;;25.20;23.83;;;;;;;;;;5070229;28;20257;-75
2023/12/27 04:32:42;;;;;;;26.02;24.30;;;;;;;;;;5069332;28;20640;-76
2023/12/27 04:35:09;;;;;;;26.33;24.67;;;;;;;;;;5070815;28;20926;-76
2023/12/27 04:37:36;;;;;;;26.17;24.60;;;;;;;;;;5070363;28;20223;-76
2023/12/27 04:40:05;;;;;;;27.40;25.70;;;;;;;;;;5070625;28;20207;-76
2023/12/27 04:42:32;;;;;;;28.10;25.90;;;;;;;;;;5070119;28;20203;-75
2023/12/27 04:44:59;;;;;;;26.95;25.25;;;;;;;;;;5070492;28;20212;-75
2023/12/27 04:47:26;;;;;;;26.40;24.90;;;;;;;;;;5070362;28;20246;-76
2023/12/27 04:49:53;;;;;;;27.45;25.95;;;;;;;;;;5070388;28;20961;-75
2023/12/27 04:52:20;;;;;;;26.42;24.48;;;;;;;;;;5069830;28;20233;-76
2023/12/27 04:54:46;;;;;;;24.77;23.42;;;;;;;;;;5070436;28;20572;-76
2023/12/27 04:57:15;;;;;;;28.20;25.70;;;;;;;;;;5070421;28;20586;-76
2023/12/27 04:59:42;;;;;;;25.55;23.85;;;;;;;;;;5070501;28;20718;-75
2023/12/27 05:02:09;;;;;;;27.75;24.75;;;;;;;;;;5070140;28;20203;-76
2023/12/27 05:04:36;;;;;;;26.17;24.30;;;;;;;;;;5070689;28;20227;-75
2023/12/27 05:07:03;;;;;;;24.10;22.60;;;;;;;;;;5069947;28;20228;-75
2023/12/27 05:09:30;;;;;;;25.15;23.15;;;;;;;;;;5070531;28;20212;-77
2023/12/27 05:11:57;;;;;;;26.75;25.23;;;;;;;;;;5069819;28;20223;-74
2023/12/27 05:14:25;;;;;;;25.30;24.00;;;;;;;;;;5070329;28;20211;-76
2023/12/27 05:16:55;;;;;;;24.88;23.58;;;;;;;;;;5070207;28;20232;-75
2023/12/27 05:19:22;;;;;;;26.60;24.70;;;;;;;;;;5070231;28;20208;-76
2023/12/27 05:21:48;;;;;;;25.10;23.55;;;;;;;;;;5069817;28;20203;-75
2023/12/27 05:24:15;;;;;;;27.58;25.80;;;;;;;;;;5070029;28;20219;-76
2023/12/27 05:26:43;;;;;;;26.48;24.65;;;;;;;;;;5069676;28;20710;-76
2023/12/27 05:29:10;;;;;;;27.20;25.55;;;;;;;;;;5070271;28;20229;-76
2023/12/27 05:31:39;;;;;;;24.48;23.08;;;;;;;;;;5069382;28;20211;-76
2023/12/27 05:34:07;;;;;;;25.85;24.02;;;;;;;;;;5069529;28;20203;-76
2023/12/27 05:36:33;;;;;;;26.65;24.95;;;;;;;;;;5069766;28;20329;-75
2023/12/27 05:39:00;;;;;;;25.73;24.25;;;;;;;;;;5070062;28;20256;-76
2023/12/27 05:41:27;;;;;;;25.48;23.98;;;;;;;;;;5068688;28;20267;-75
2023/12/27 05:43:55;;;;;;;25.20;23.70;;;;;;;;;;5073160;28;20273;-75
2023/12/27 05:46:21;;;;;;;25.90;24.45;;;;;;;;;;5073699;28;20227;-75
2023/12/27 05:48:50;;;;;;;25.92;24.38;;;;;;;;;;5074008;28;20207;-76
2023/12/27 05:51:17;;;;;;;25.60;24.20;;;;;;;;;;5073118;28;20199;-76
2023/12/27 05:53:44;;;;;;;25.95;24.52;;;;;;;;;;5074013;28;20234;-76
2023/12/27 05:56:11;;;;;;;26.75;25.02;;;;;;;;;;5073919;28;20204;-76
2023/12/27 05:58:38;;;;;;;26.50;24.38;;;;;;;;;;5074187;28;20242;-76
2023/12/27 06:01:05;;;;;;;28.40;26.17;;;;;;;;;;5073359;28;20212;-76
2023/12/27 06:03:32;;;;;;;25.80;24.17;;;;;;;;;;5073728;28;20250;-75
2023/12/27 06:06:00;;;;;;;26.33;24.40;;;;;;;;;;5073563;28;20200;-75
2023/12/27 06:08:27;;;;;;;26.05;24.15;;;;;;;;;;5073364;28;20242;-76
2023/12/27 06:10:54;;;;;;;24.60;23.23;;;;;;;;;;5072494;28;20211;-76
2023/12/27 06:13:21;;;;;;;26.25;24.75;;;;;;;;;;5073724;28;20207;-75
2023/12/27 06:15:48;;;;;;;25.75;24.35;;;;;;;;;;5074024;28;20207;-75
2023/12/27 06:18:15;;;;;;;26.35;24.60;;;;;;;;;;5073467;28;20223;-75
2023/12/27 06:20:42;;;;;;;27.05;25.35;;;;;;;;;;5072734;28;20211;-75
2023/12/27 06:23:11;;;;;;;25.63;24.17;;;;;;;;;;5073114;28;20359;-75
2023/12/27 06:25:37;;;;;;;24.52;23.02;;;;;;;;;;5073132;28;20695;-76
2023/12/27 06:28:05;;;;;;;24.35;22.95;;;;;;;;;;5073391;28;20224;-76
2023/12/27 06:30:32;;;;;;;24.70;23.40;;;;;;;;;;5081041;28;20208;-76
2023/12/27 06:32:59;;;;;;;26.60;24.95;;;;;;;;;;5073163;28;20253;-75
2023/12/27 06:35:26;;;;;;;26.73;24.88;;;;;;;;;;5073182;28;20288;-76
2023/12/27 06:37:54;;;;;;;25.30;23.90;;;;;;;;;;5072941;28;20227;-77
2023/12/27 06:40:22;;;;;;;29.02;26.42;;;;;;;;;;5073014;28;20241;-76
2023/12/27 06:42:49;;;;;;;26.88;25.08;;;;;;;;;;5072902;28;20625;-75
2023/12/27 06:45:16;;;;;;;28.40;25.70;;;;;;;;;;5073163;28;20235;-76
2023/12/27 06:47:43;;;;;;;26.98;25.27;;;;;;;;;;5073194;28;20258;-76
2023/12/27 06:50:10;;;;;;;29.33;26.55;;;;;;;;;;5073367;28;20200;-76
2023/12/27 06:52:37;;;;;;;30.05;28.20;;;;;;;;;;5072647;28;20203;-76
2023/12/27 06:55:04;;;;;;;28.23;26.10;;;;;;;;;;5072281;28;20203;-76
2023/12/27 06:57:33;;;;;;;28.50;26.70;;;;;;;;;;5072117;28;20279;-76
2023/12/27 07:00:00;;;;;;;28.27;26.35;;;;;;;;;;5073529;28;20199;-75
2023/12/27 07:02:26;;;;;;;30.85;28.75;;;;;;;;;;5084035;28;20214;-76
2023/12/27 07:04:53;;;;;;;29.73;27.80;;;;;;;;;;5092655;28;20271;-75
2023/12/27 07:07:20;;;;;;;28.90;26.85;;;;;;;;;;5080546;28;20235;-75
2023/12/27 07:09:47;;;;;;;28.88;26.88;;;;;;;;;;5079983;28;20228;-75
2023/12/27 07:12:14;;;;;;;30.90;28.27;;;;;;;;;;5092140;28;20206;-75
2023/12/27 07:14:43;;;;;;;29.30;27.30;;;;;;;;;;5092599;28;20211;-76
2023/12/27 07:17:10;;;;;;;30.45;28.15;;;;;;;;;;5092293;28;20230;-75
2023/12/27 07:19:37;;;;;;;31.23;28.70;;;;;;;;;;5092374;28;20217;-75
2023/12/27 07:22:04;;;;;;;28.38;26.77;;;;;;;;;;5091895;28;20207;-74
2023/12/27 07:24:31;;;;;;;28.40;26.10;;;;;;;;;;5092196;28;20299;-76
2023/12/27 07:26:58;;;;;;;29.25;27.52;;;;;;;;;;5092599;28;20276;-75
2023/12/27 07:29:25;;;;;;;27.60;26.10;;;;;;;;;;5091999;28;20210;-75
2023/12/27 07:31:53;;;;;;;29.63;27.77;;;;;;;;;;5091401;28;20667;-76
2023/12/27 07:34:21;;;;;;;29.20;27.15;;;;;;;;;;5091774;28;20548;-76
2023/12/27 07:36:48;;;;;;;29.50;27.27;;;;;;;;;;5091646;28;20261;-75
2023/12/27 07:39:16;;;;;;;29.40;27.80;;;;;;;;;;5091793;28;20206;-76
2023/12/27 07:41:43;;;;;;;30.33;27.52;;;;;;;;;;5091450;28;20213;-75
2023/12/27 07:44:10;;;;;;;29.20;27.20;;;;;;;;;;5091823;28;20219;-75
2023/12/27 07:46:37;;;;;;;28.75;27.05;;;;;;;;;;5091978;28;20295;-75
2023/12/27 07:49:05;;;;;;;29.85;27.35;;;;;;;;;;5089413;28;20214;-76
2023/12/27 07:51:32;;;;;;;28.55;26.60;;;;;;;;;;5071273;28;20211;-76
2023/12/27 07:53:59;;;;;;;31.23;28.35;;;;;;;;;;5071525;28;20261;-75
2023/12/27 07:56:26;;;;;;;29.25;26.65;;;;;;;;;;5071232;28;20231;-76
2023/12/27 07:58:53;;;;;;;27.90;26.05;;;;;;;;;;5071269;28;20634;-76
2023/12/27 08:01:20;;;;;;;27.80;25.48;;;;;;;;;;5070874;28;20204;-75
2023/12/27 08:03:47;;;;;;;28.27;25.92;;;;;;;;;;5071542;28;20230;-75
2023/12/27 08:06:16;;;;;;;28.00;26.00;;;;;;;;;;5069975;28;20776;-76
2023/12/27 08:08:43;;;;;;;29.00;27.00;;;;;;;;;;5070944;28;20221;-75
2023/12/27 08:11:10;;;;;;;27.70;25.90;;;;;;;;;;5070589;28;20234;-75
2023/12/27 08:13:36;;;;;;;26.95;24.85;;;;;;;;;;5070489;28;20191;-76
2023/12/27 08:16:04;;;;;;;28.40;25.67;;;;;;;;;;5070776;28;20276;-75
2023/12/27 08:18:31;;;;;;;27.13;25.05;;;;;;;;;;5075608;28;20720;-74
2023/12/27 08:20:58;;;;;;;28.30;26.05;;;;;;;;;;5071396;28;20216;-75
2023/12/27 08:23:27;;;;;;;26.75;24.30;;;;;;;;;;5070934;28;20212;-75
2023/12/27 08:25:54;;;;;;;30.38;27.95;;;;;;;;;;5070590;28;20245;-76
2023/12/27 08:28:21;;;;;;;28.67;26.40;;;;;;;;;;5070893;28;20207;-75
2023/12/27 08:30:48;;;;;;;29.00;26.70;;;;;;;;;;5070060;28;20989;-75
2023/12/27 08:33:15;;;;;;;28.02;25.60;;;;;;;;;;5070568;28;20368;-76
2023/12/27 08:35:42;;;;;;;28.00;25.65;;;;;;;;;;5078822;28;20206;-76
2023/12/27 08:38:09;;;;;;;27.35;25.65;;;;;;;;;;5090575;28;20227;-76
2023/12/27 08:40:37;;;;;;;27.20;25.25;;;;;;;;;;5090264;28;20210;-77
2023/12/27 08:43:04;;;;;;;26.67;25.08;;;;;;;;;;5086795;28;20241;-76
2023/12/27 08:45:31;;;;;;;26.48;24.40;;;;;;;;;;5072029;28;20318;-76
2023/12/27 08:47:58;;;;;;;27.27;25.10;;;;;;;;;;5070955;28;20223;-75
2023/12/27 08:50:25;;;;;;;27.88;25.58;;;;;;;;;;5070703;28;20245;-76
2023/12/27 08:52:52;;;;;;;26.10;24.17;;;;;;;;;;5070066;28;20204;-76
2023/12/27 08:55:19;;;;;;;28.38;25.83;;;;;;;;;;5070281;28;20737;-76
2023/12/27 08:57:47;;;;;;;26.08;24.15;;;;;;;;;;5070816;28;20231;-75
2023/12/27 09:00:15;;;;;;;26.17;24.27;;;;;;;;;;5070976;28;20265;-74
2023/12/27 09:02:41;;;;;;;25.30;23.30;;;;;;;;;;5069879;28;20671;-75
2023/12/27 09:05:09;;;;;;;26.50;24.25;;;;;;;;;;5070479;28;20989;-75
2023/12/27 09:07:36;;;;;;;26.38;24.27;;;;;;;;;;5070553;28;20278;-76
2023/12/27 09:10:04;;;;;;;25.00;23.10;;;;;;;;;;5070390;28;20203;-75
2023/12/27 09:12:31;;;;;;;24.50;22.98;;;;;;;;;;5070447;28;20215;-75
2023/12/27 09:15:01;;;;;;;26.58;24.67;;;;;;;;;;5070666;28;20210;-76
2023/12/27 09:17:29;;;;;;;24.80;23.20;;;;;;;;;;5069890;28;20227;-76
2023/12/27 09:19:56;;;;;;;25.10;23.55;;;;;;;;;;5070568;28;20218;-76
2023/12/27 09:22:22;;;;;;;24.58;23.00;;;;;;;;;;5069748;28;20280;-75
2023/12/27 09:24:50;;;;;;;24.33;22.27;;;;;;;;;;5070135;28;20219;-75
2023/12/27 09:27:17;;;;;;;24.35;22.65;;;;;;;;;;5070243;28;20223;-75
2023/12/27 09:29:44;;;;;;;25.27;22.97;;;;;;;;;;5070396;28;20290;-75
2023/12/27 09:32:13;;;;;;;23.52;21.90;;;;;;;;;;5069868;28;20446;-76
2023/12/27 09:34:40;;;;;;;23.20;21.88;;;;;;;;;;5070574;28;20199;-75
2023/12/27 09:37:07;;;;;;;23.97;22.30;;;;;;;;;;5070332;28;20231;-75
2023/12/27 09:39:34;;;;;;;25.42;23.25;;;;;;;;;;5070339;28;20442;-74
2023/12/27 09:42:01;;;;;;;25.08;23.38;;;;;;;;;;5069631;28;20734;-77
2023/12/27 09:44:29;;;;;;;25.30;23.65;;;;;;;;;;5070359;28;20318;-76
2023/12/27 09:46:57;;;;;;;25.77;23.40;;;;;;;;;;5070165;28;20326;-76
2023/12/27 09:49:25;;;;;;;24.67;22.77;;;;;;;;;;5070261;28;20454;-75
2023/12/27 09:51:55;;;;;;;24.15;22.10;;;;;;;;;;5069863;28;20203;-74
2023/12/27 09:54:22;;;;;;;25.63;23.17;;;;;;;;;;5070233;28;20207;-75
2023/12/27 09:56:49;;;;;;;23.45;21.90;;;;;;;;;;5070614;28;20457;-75
2023/12/27 09:59:19;;;;;;;25.50;23.60;;;;;;;;;;5069765;28;21014;-75
2023/12/27 10:01:48;;;;;;;24.50;22.80;;;;;;;;;;5068926;28;20899;-75
2023/12/27 10:04:19;;;;;;;25.55;22.95;;;;;;;;;;5069804;28;20261;-75
2023/12/27 10:06:49;;;;;;;23.77;22.20;;;;;;;;;;5086064;28;20234;-78
2023/12/27 10:09:16;;;;;;;23.40;21.70;;;;;;;;;;5090294;28;20429;-75
2023/12/27 10:11:43;;;;;;;24.70;22.60;;;;;;;;;;5089241;28;20211;-75
2023/12/27 10:14:11;;;;;;;24.48;22.52;;;;;;;;;;5089579;28;20902;-75
2023/12/27 10:16:38;;;;;;;24.55;22.02;;;;;;;;;;5089763;28;20230;-75
2023/12/27 10:19:05;;;;;;;23.67;21.90;;;;;;;;;;5070572;28;20212;-76
2023/12/27 10:21:40;;;;;;;25.90;23.40;;;;;;;;;;5076847;28;20218;-75
2023/12/27 10:24:09;;;;;;;23.23;21.73;;;;;;;;;;5078604;28;20807;-76
2023/12/27 10:26:36;;;;;;;23.73;22.00;;;;;;;;;;5089582;28;20530;-76
2023/12/27 10:29:03;;;;;;;25.30;22.60;;;;;;;;;;5089551;28;20217;-76
2023/12/27 10:31:30;;;;;;;24.92;22.77;;;;;;;;;;5092904;28;20280;-75
2023/12/27 10:34:02;;;;;;;24.27;22.17;;;;;;;;;;5093563;28;20213;-77
2023/12/27 10:36:30;;;;;;;23.85;22.10;;;;;;;;;;5082289;28;20227;-84
2023/12/27 10:39:01;;;;;;;25.08;22.98;;;;;;;;;;5078229;28;20204;-80
2023/12/27 10:41:30;;;;;;;27.52;24.92;;;;;;;;;;5079028;28;20210;-83
2023/12/27 10:43:58;;;;;;;28.63;25.63;;;;;;;;;;5078569;28;20207;-83
2023/12/27 10:46:25;;;;;;;26.93;24.60;;;;;;;;;;5079103;28;20304;-83
2023/12/27 10:48:53;;;;;;;26.67;24.50;;;;;;;;;;5092413;28;20448;-82
2023/12/27 10:51:23;;;;;;;25.20;22.92;;;;;;;;;;5096357;28;20874;-82
2023/12/27 10:53:51;;;;;;;25.02;22.88;;;;;;;;;;5095636;28;20736;-76
2023/12/27 10:56:19;;;;;;;26.20;24.20;;;;;;;;;;5093164;28;20223;-79
2023/12/27 10:58:49;;;;;;;24.85;23.10;;;;;;;;;;5092883;28;21342;-76
2023/12/27 11:01:16;;;;;;;25.17;22.90;;;;;;;;;;5092623;28;20187;-76
2023/12/27 11:03:43;;;;;;;26.55;24.13;;;;;;;;;;5092953;28;20410;-76
2023/12/27 11:06:11;;;;;;;26.40;23.80;;;;;;;;;;5095453;28;20233;-76
2023/12/27 11:08:39;;;;;;;24.58;22.38;;;;;;;;;;5091667;28;20514;-76
2023/12/27 11:11:06;;;;;;;25.83;23.60;;;;;;;;;;5090656;28;20207;-76
2023/12/27 11:13:35;;;;;;;26.50;24.23;;;;;;;;;;5092348;28;20429;-76
2023/12/27 11:16:05;;;;;;;25.10;23.40;;;;;;;;;;5072280;28;20489;-76
2023/12/27 11:18:32;;;;;;;27.48;24.80;;;;;;;;;;5072247;28;20446;-76
2023/12/27 11:21:00;;;;;;;26.20;24.00;;;;;;;;;;5071654;28;20203;-76
2023/12/27 11:23:27;;;;;;;25.60;23.90;;;;;;;;;;5071858;28;20496;-75
2023/12/27 11:25:56;;;;;;;24.87;22.50;;;;;;;;;;5071966;28;20508;-75
2023/12/27 11:28:23;;;;;;;22.85;21.42;;;;;;;;;;5071663;28;20922;-75
2023/12/27 11:30:50;;;;;;;24.10;22.20;;;;;;;;;;5070936;28;20211;-75
2023/12/27 11:33:23;;;;;;;24.33;22.73;;;;;;;;;;5071841;28;20945;-76
2023/12/27 11:35:51;;;;;;;24.10;22.23;;;;;;;;;;5071531;28;20438;-76
2023/12/27 11:38:20;;;;;;;25.30;23.40;;;;;;;;;;5072122;28;20469;-76
2023/12/27 11:40:47;;;;;;;24.07;22.47;;;;;;;;;;5071229;28;21027;-76
2023/12/27 11:43:19;;;;;;;24.93;23.33;;;;;;;;;;5072090;28;20446;-76
2023/12/27 11:46:02;;;;;;;25.73;23.80;;;;;;;;;;5071809;28;20470;-75
2023/12/27 11:48:33;;;;;;;26.70;24.40;;;;;;;;;;5072000;28;20499;-75
2023/12/27 11:51:02;;;;;;;28.10;25.37;;;;;;;;;;5071438;28;20434;-76
2023/12/27 11:53:30;;;;;;;26.00;23.48;;;;;;;;;;5071054;28;20478;-76
2023/12/27 11:55:59;;;;;;;25.02;23.40;;;;;;;;;;5071501;28;20200;-76
2023/12/27 11:58:32;;;;;;;26.90;24.87;;;;;;;;;;5069880;28;20664;-77
2023/12/27 12:01:14;;;;;;;25.70;23.60;;;;;;;;;;5074818;28;20999;-76
2023/12/27 12:03:43;;;;;;;24.27;22.58;;;;;;;;;;5076398;28;20424;-76
2023/12/27 12:06:16;;;;;;;25.30;23.60;;;;;;;;;;5071188;28;20293;-76
2023/12/27 12:08:45;;;;;;;25.30;23.63;;;;;;;;;;5070618;28;20497;-77
2023/12/27 12:11:15;;;;;;;25.23;23.20;;;;;;;;;;5069762;28;20453;-76
2023/12/27 12:13:43;;;;;;;25.23;23.33;;;;;;;;;;5071885;28;20445;-76
2023/12/27 12:16:10;;;;;;;25.90;23.80;;;;;;;;;;5077717;28;20445;-76
2023/12/27 12:18:39;;;;;;;26.63;24.80;;;;;;;;;;5090965;28;20518;-75
2023/12/27 12:21:07;;;;;;;26.13;23.57;;;;;;;;;;5090742;28;20449;-78
2023/12/27 12:23:35;;;;;;;24.47;22.77;;;;;;;;;;5095032;28;20522;-82
2023/12/27 12:26:03;;;;;;;26.83;24.93;;;;;;;;;;5096701;28;20480;-82
2023/12/27 12:28:30;;;;;;;26.27;24.07;;;;;;;;;;5091195;28;20457;-75
2023/12/27 12:30:58;;;;;;;26.90;24.80;;;;;;;;;;5080186;28;20535;-83
2023/12/27 12:33:25;;;;;;;25.40;23.80;;;;;;;;;;5076259;28;20509;-82
2023/12/27 12:35:53;;;;;;;26.77;24.67;;;;;;;;;;5092276;28;20536;-81
2023/12/27 12:38:22;;;;;;;27.53;25.40;;;;;;;;;;5079428;28;20442;-80
2023/12/27 12:40:49;;;;;;;26.20;24.30;;;;;;;;;;5077305;28;20470;-80
2023/12/27 12:43:17;;;;;;;26.97;24.83;;;;;;;;;;5080422;28;20485;-81
2023/12/27 12:45:44;;;;;;;26.73;24.60;;;;;;;;;;5075042;28;20535;-75
2023/12/27 12:48:11;;;;;;;26.73;24.93;;;;;;;;;;5070925;28;20444;-77
2023/12/27 12:50:38;;;;;;;27.73;25.57;;;;;;;;;;5070248;28;20523;-76
2023/12/27 12:53:15;;;;;;;26.63;24.90;;;;;;;;;;5075615;28;20472;-76
2023/12/27 12:55:44;;;;;;;29.63;27.20;;;;;;;;;;5070610;28;20465;-77
2023/12/27 12:58:11;;;;;;;28.37;26.17;;;;;;;;;;5070450;28;20444;-76
2023/12/27 13:00:38;;;;;;;30.23;28.13;;;;;;;;;;5069974;28;20499;-77
2023/12/27 13:03:06;;;;;;;29.67;27.10;;;;;;;;;;5070673;28;20795;-75
2023/12/27 13:05:33;;;;;;;31.93;29.33;;;;;;;;;;5070698;28;20489;-77
2023/12/27 13:08:05;;;;;;;30.50;27.97;;;;;;;;;;5072681;28;20464;-81
2023/12/27 13:10:32;;;;;;;26.97;25.17;;;;;;;;;;5073548;28;20426;-81
2023/12/27 13:13:00;;;;;;;26.33;24.57;;;;;;;;;;5073785;28;20453;-79
2023/12/27 13:15:27;;;;;;;27.13;25.03;;;;;;;;;;5074575;28;20446;-81
2023/12/27 13:17:54;;;;;;;27.47;25.77;;;;;;;;;;5073804;28;20473;-80
2023/12/27 13:20:21;;;;;;;26.70;24.97;;;;;;;;;;5073728;28;20542;-80
2023/12/27 13:22:48;;;;;;;28.07;26.17;;;;;;;;;;5074514;28;20446;-79
2023/12/27 13:25:16;;;;;;;28.47;26.47;;;;;;;;;;5075053;28;20442;-80
2023/12/27 13:27:44;;;;;;;27.50;25.70;;;;;;;;;;5074490;28;20481;-79
2023/12/27 13:30:13;;;;;;;31.03;28.73;;;;;;;;;;5074207;28;20845;-80
2023/12/27 13:32:40;;;;;;;32.67;30.13;;;;;;;;;;5073516;28;20449;-79
2023/12/27 13:35:07;;;;;;;32.50;30.17;;;;;;;;;;5075075;28;20922;-79
2023/12/27 13:37:34;;;;;;;29.40;27.33;;;;;;;;;;5074715;28;20481;-79
2023/12/27 13:40:01;;;;;;;29.97;27.87;;;;;;;;;;5075573;28;20457;-79
2023/12/27 13:42:28;;;;;;;32.60;30.17;;;;;;;;;;5075007;28;20433;-79
2023/12/27 13:44:55;;;;;;;31.20;29.10;;;;;;;;;;5089405;28;20468;-79
2023/12/27 13:47:24;;;;;;;29.70;27.53;;;;;;;;;;5095109;28;20489;-79
2023/12/27 13:49:51;;;;;;;32.60;30.23;;;;;;;;;;5094801;28;20469;-79
2023/12/27 13:52:18;;;;;;;29.30;27.30;;;;;;;;;;5076791;28;20453;-80
2023/12/27 13:54:45;;;;;;;30.23;28.20;;;;;;;;;;5090417;28;20453;-79
2023/12/27 13:57:12;;;;;;;30.03;28.10;;;;;;;;;;5095047;28;20518;-82
2023/12/27 13:59:39;;;;;;;29.10;27.20;;;;;;;;;;5096646;28;20474;-83
2023/12/27 14:02:07;;;;;;;30.13;28.20;;;;;;;;;;5099465;28;20807;-82
2023/12/27 14:04:34;;;;;;;31.97;29.70;;;;;;;;;;5098576;28;20468;-80
2023/12/27 14:07:01;;;;;;;31.63;29.43;;;;;;;;;;5103411;28;20639;-81
2023/12/27 14:09:28;;;;;;;34.47;31.90;;;;;;;;;;5103431;28;20494;-82
2023/12/27 14:11:56;;;;;;;33.77;31.27;;;;;;;;;;5103270;28;20668;-81
2023/12/27 14:14:23;;;;;;;34.13;31.67;;;;;;;;;;5099690;28;20473;-80
2023/12/27 14:16:53;;;;;;;35.37;31.77;;;;;;;;;;5094487;28;20469;-82
2023/12/27 14:19:20;;;;;;;30.73;28.73;;;;;;;;;;5078585;28;20444;-78
2023/12/27 14:21:48;;;;;;;30.87;28.63;;;;;;;;;;5088538;28;20453;-78